sensor_id;sensor_type;location;lat;lon;timestamp;P1;durP1;ratioP1;P2;durP2;ratioP2
35044;SDS011;21231;48.394;34.964;2023-08-24T10:25:23;1.27;;;1.17;;
35044;SDS011;21231;48.394;34.964;2023-08-24T10:28:10;0.70;;;0.70;;
35044;SDS011;21231;48.394;34.964;2023-08-24T10:30:58;0.13;;;0.13;;
35044;SDS011;21231;48.394;34.964;2023-08-24T10:33:46;0.17;;;0.10;;
35044;SDS011;21231;48.394;34.964;2023-08-24T10:36:32;0.38;;;0.32;;
35044;SDS011;21231;48.394;34.964;2023-08-24T10:39:26;0.40;;;0.40;;
35044;SDS011;21231;48.394;34.964;2023-08-24T10:42:14;3.25;;;0.25;;
35044;SDS011;21231;48.394;34.964;2023-08-24T10:45:00;0.00;;;0.00;;
35044;SDS011;21231;48.394;34.964;2023-08-24T10:47:47;0.20;;;0.20;;
35044;SDS011;21231;48.394;34.964;2023-08-24T10:50:40;0.10;;;0.10;;
35044;SDS011;21231;48.394;34.964;2023-08-24T10:53:38;0.57;;;0.57;;
35044;SDS011;21231;48.394;34.964;2023-08-24T10:56:52;0.20;;;0.20;;
35044;SDS011;21231;48.394;34.964;2023-08-24T10:59:38;0.60;;;0.52;;
35044;SDS011;21231;48.394;34.964;2023-08-24T11:05:36;1.00;;;0.60;;
35044;SDS011;21231;48.394;34.964;2023-08-24T11:08:22;0.20;;;0.20;;
35044;SDS011;21231;48.394;34.964;2023-08-24T11:11:32;0.10;;;0.10;;
35044;SDS011;21231;48.394;34.964;2023-08-24T11:14:19;0.25;;;0.25;;
35044;SDS011;21231;48.394;34.964;2023-08-24T11:17:17;0.40;;;0.40;;
35044;SDS011;21231;48.394;34.964;2023-08-24T11:20:04;0.35;;;0.35;;
35044;SDS011;21231;48.394;34.964;2023-08-24T11:22:53;0.08;;;0.08;;
35044;SDS011;21231;48.394;34.964;2023-08-24T11:25:41;0.25;;;0.25;;
35044;SDS011;21231;48.394;34.964;2023-08-24T11:31:15;0.20;;;0.20;;
35044;SDS011;21231;48.394;34.964;2023-08-24T11:34:02;0.22;;;0.22;;
35044;SDS011;21231;48.394;34.964;2023-08-24T11:36:50;0.20;;;0.17;;
35044;SDS011;21231;48.394;34.964;2023-08-24T11:39:36;0.00;;;0.00;;
35044;SDS011;21231;48.394;34.964;2023-08-24T11:42:24;0.90;;;0.90;;
35044;SDS011;21231;48.394;34.964;2023-08-24T11:45:13;0.10;;;0.10;;
35044;SDS011;21231;48.394;34.964;2023-08-24T11:48:00;2.88;;;0.88;;
35044;SDS011;21231;48.394;34.964;2023-08-24T11:50:48;2.20;;;0.45;;
35044;SDS011;21231;48.394;34.964;2023-08-24T11:53:41;0.00;;;0.00;;
35044;SDS011;21231;48.394;34.964;2023-08-24T11:56:29;0.00;;;0.00;;
35044;SDS011;21231;48.394;34.964;2023-08-24T11:59:16;0.10;;;0.10;;
35044;SDS011;21231;48.394;34.964;2023-08-24T12:02:03;0.10;;;0.10;;
35044;SDS011;21231;48.394;34.964;2023-08-24T12:04:53;0.28;;;0.28;;
35044;SDS011;21231;48.394;34.964;2023-08-24T12:07:39;0.00;;;0.00;;
35044;SDS011;21231;48.394;34.964;2023-08-24T12:10:26;0.52;;;0.52;;
35044;SDS011;21231;48.394;34.964;2023-08-24T12:15:59;0.15;;;0.15;;
35044;SDS011;21231;48.394;34.964;2023-08-24T12:18:47;0.00;;;0.00;;
35044;SDS011;21231;48.394;34.964;2023-08-24T12:21:34;0.00;;;0.00;;
35044;SDS011;21231;48.394;34.964;2023-08-24T12:24:21;0.20;;;0.20;;
35044;SDS011;21231;48.394;34.964;2023-08-24T12:27:08;4.90;;;0.38;;
35044;SDS011;21231;48.394;34.964;2023-08-24T12:29:59;0.68;;;0.30;;
35044;SDS011;21231;48.394;34.964;2023-08-24T12:32:47;0.00;;;0.00;;
35044;SDS011;21231;48.394;34.964;2023-08-24T12:35:36;0.68;;;0.60;;
35044;SDS011;21231;48.394;34.964;2023-08-24T12:38:23;0.28;;;0.25;;
35044;SDS011;21231;48.394;34.964;2023-08-24T12:41:10;0.73;;;0.40;;
35044;SDS011;21231;48.394;34.964;2023-08-24T12:43:55;0.30;;;0.30;;
35044;SDS011;21231;48.394;34.964;2023-08-24T12:46:42;0.20;;;0.20;;
35044;SDS011;21231;48.394;34.964;2023-08-24T12:55:01;0.10;;;0.10;;
35044;SDS011;21231;48.394;34.964;2023-08-24T12:57:47;1.85;;;1.42;;
35044;SDS011;21231;48.394;34.964;2023-08-24T13:00:34;0.17;;;0.17;;
35044;SDS011;21231;48.394;34.964;2023-08-24T13:03:20;0.30;;;0.30;;
35044;SDS011;21231;48.394;34.964;2023-08-24T13:06:07;0.00;;;0.00;;
35044;SDS011;21231;48.394;34.964;2023-08-24T13:09:08;0.32;;;0.10;;
35044;SDS011;21231;48.394;34.964;2023-08-24T13:11:54;0.10;;;0.08;;
35044;SDS011;21231;48.394;34.964;2023-08-24T13:14:40;0.13;;;0.13;;
35044;SDS011;21231;48.394;34.964;2023-08-24T13:17:26;0.10;;;0.10;;
35044;SDS011;21231;48.394;34.964;2023-08-24T13:20:12;0.03;;;0.03;;
35044;SDS011;21231;48.394;34.964;2023-08-24T13:22:59;0.00;;;0.00;;
35044;SDS011;21231;48.394;34.964;2023-08-24T13:25:45;0.47;;;0.47;;
35044;SDS011;21231;48.394;34.964;2023-08-24T13:28:32;0.88;;;0.52;;
35044;SDS011;21231;48.394;34.964;2023-08-24T13:31:18;0.17;;;0.15;;
35044;SDS011;21231;48.394;34.964;2023-08-24T13:34:05;0.17;;;0.03;;
35044;SDS011;21231;48.394;34.964;2023-08-24T13:36:53;0.45;;;0.45;;
35044;SDS011;21231;48.394;34.964;2023-08-24T13:39:39;0.63;;;0.63;;
35044;SDS011;21231;48.394;34.964;2023-08-24T13:42:25;0.28;;;0.10;;
35044;SDS011;21231;48.394;34.964;2023-08-24T13:45:12;0.08;;;0.08;;
35044;SDS011;21231;48.394;34.964;2023-08-24T13:47:57;0.20;;;0.20;;
35044;SDS011;21231;48.394;34.964;2023-08-24T13:50:50;0.08;;;0.08;;
35044;SDS011;21231;48.394;34.964;2023-08-24T13:53:40;0.00;;;0.00;;
35044;SDS011;21231;48.394;34.964;2023-08-24T13:56:26;0.00;;;0.00;;
35044;SDS011;21231;48.394;34.964;2023-08-24T13:59:12;0.15;;;0.15;;
35044;SDS011;21231;48.394;34.964;2023-08-24T14:01:59;0.10;;;0.10;;
35044;SDS011;21231;48.394;34.964;2023-08-24T14:04:46;0.00;;;0.00;;
35044;SDS011;21231;48.394;34.964;2023-08-24T14:07:32;0.32;;;0.20;;
35044;SDS011;21231;48.394;34.964;2023-08-24T14:10:18;0.10;;;0.10;;
35044;SDS011;21231;48.394;34.964;2023-08-24T14:13:04;0.00;;;0.00;;
35044;SDS011;21231;48.394;34.964;2023-08-24T14:15:50;0.00;;;0.00;;
35044;SDS011;21231;48.394;34.964;2023-08-24T14:18:37;0.00;;;0.00;;
35044;SDS011;21231;48.394;34.964;2023-08-24T14:21:23;0.95;;;0.45;;
35044;SDS011;21231;48.394;34.964;2023-08-24T14:24:28;0.10;;;0.10;;
35044;SDS011;21231;48.394;34.964;2023-08-24T14:27:15;0.30;;;0.30;;
35044;SDS011;21231;48.394;34.964;2023-08-24T14:30:02;0.00;;;0.00;;
35044;SDS011;21231;48.394;34.964;2023-08-24T14:35:35;0.00;;;0.00;;
35044;SDS011;21231;48.394;34.964;2023-08-24T14:38:21;0.05;;;0.05;;
35044;SDS011;21231;48.394;34.964;2023-08-24T14:41:08;0.30;;;0.30;;
35044;SDS011;21231;48.394;34.964;2023-08-24T14:43:59;0.20;;;0.20;;
35044;SDS011;21231;48.394;34.964;2023-08-24T14:46:45;0.10;;;0.10;;
35044;SDS011;21231;48.394;34.964;2023-08-24T14:49:32;0.22;;;0.22;;
35044;SDS011;21231;48.394;34.964;2023-08-24T14:52:18;0.10;;;0.10;;
35044;SDS011;21231;48.394;34.964;2023-08-24T14:55:05;0.00;;;0.00;;
35044;SDS011;21231;48.394;34.964;2023-08-24T14:57:54;0.30;;;0.10;;
35044;SDS011;21231;48.394;34.964;2023-08-24T15:00:41;0.13;;;0.13;;
35044;SDS011;21231;48.394;34.964;2023-08-24T15:06:14;0.35;;;0.35;;
35044;SDS011;21231;48.394;34.964;2023-08-24T15:09:00;0.82;;;0.65;;
35044;SDS011;21231;48.394;34.964;2023-08-24T15:14:34;0.38;;;0.38;;
35044;SDS011;21231;48.394;34.964;2023-08-24T15:17:20;0.10;;;0.10;;
35044;SDS011;21231;48.394;34.964;2023-08-24T15:22:53;0.00;;;0.00;;
35044;SDS011;21231;48.394;34.964;2023-08-24T15:25:39;0.55;;;0.55;;
35044;SDS011;21231;48.394;34.964;2023-08-24T15:28:25;0.00;;;0.00;;
35044;SDS011;21231;48.394;34.964;2023-08-24T15:31:12;0.00;;;0.00;;
35044;SDS011;21231;48.394;34.964;2023-08-24T15:33:58;0.03;;;0.03;;
35044;SDS011;21231;48.394;34.964;2023-08-24T15:36:44;0.00;;;0.00;;
35044;SDS011;21231;48.394;34.964;2023-08-24T15:42:22;0.10;;;0.10;;
35044;SDS011;21231;48.394;34.964;2023-08-24T15:50:44;0.10;;;0.10;;
35044;SDS011;21231;48.394;34.964;2023-08-24T15:56:17;0.00;;;0.00;;
35044;SDS011;21231;48.394;34.964;2023-08-24T15:59:04;0.10;;;0.10;;
35044;SDS011;21231;48.394;34.964;2023-08-24T16:04:36;0.38;;;0.38;;
35044;SDS011;21231;48.394;34.964;2023-08-24T16:07:22;0.17;;;0.17;;
35044;SDS011;21231;48.394;34.964;2023-08-24T16:10:08;0.00;;;0.00;;
35044;SDS011;21231;48.394;34.964;2023-08-24T16:12:56;0.38;;;0.38;;
35044;SDS011;21231;48.394;34.964;2023-08-24T16:15:42;0.17;;;0.17;;
35044;SDS011;21231;48.394;34.964;2023-08-24T16:18:28;0.88;;;0.88;;
35044;SDS011;21231;48.394;34.964;2023-08-24T16:21:14;0.20;;;0.08;;
35044;SDS011;21231;48.394;34.964;2023-08-24T16:24:00;0.00;;;0.00;;
35044;SDS011;21231;48.394;34.964;2023-08-24T16:26:46;0.00;;;0.00;;
35044;SDS011;21231;48.394;34.964;2023-08-24T16:29:33;0.10;;;0.10;;
35044;SDS011;21231;48.394;34.964;2023-08-24T16:32:19;0.57;;;0.57;;
35044;SDS011;21231;48.394;34.964;2023-08-24T16:35:05;0.30;;;0.30;;
35044;SDS011;21231;48.394;34.964;2023-08-24T16:40:38;6.35;;;4.32;;
35044;SDS011;21231;48.394;34.964;2023-08-24T16:43:24;3.10;;;1.88;;
35044;SDS011;21231;48.394;34.964;2023-08-24T16:46:10;11.52;;;9.18;;
35044;SDS011;21231;48.394;34.964;2023-08-24T16:48:57;23.83;;;9.82;;
35044;SDS011;21231;48.394;34.964;2023-08-24T16:54:30;16.98;;;10.05;;
35044;SDS011;21231;48.394;34.964;2023-08-24T16:57:17;21.05;;;6.93;;
35044;SDS011;21231;48.394;34.964;2023-08-24T17:00:05;11.30;;;8.32;;
35044;SDS011;21231;48.394;34.964;2023-08-24T17:02:52;12.65;;;8.55;;
35044;SDS011;21231;48.394;34.964;2023-08-24T17:05:39;6.97;;;4.80;;
35044;SDS011;21231;48.394;34.964;2023-08-24T17:08:25;12.63;;;9.82;;
35044;SDS011;21231;48.394;34.964;2023-08-24T17:11:11;17.88;;;12.00;;
35044;SDS011;21231;48.394;34.964;2023-08-24T17:13:57;18.67;;;12.85;;
35044;SDS011;21231;48.394;34.964;2023-08-24T17:16:44;19.75;;;12.00;;
35044;SDS011;21231;48.394;34.964;2023-08-24T17:19:30;18.67;;;11.95;;
35044;SDS011;21231;48.394;34.964;2023-08-24T17:22:17;12.82;;;10.55;;
35044;SDS011;21231;48.394;34.964;2023-08-24T17:25:03;9.25;;;8.30;;
35044;SDS011;21231;48.394;34.964;2023-08-24T17:27:52;11.18;;;5.10;;
35044;SDS011;21231;48.394;34.964;2023-08-24T17:30:44;5.07;;;4.57;;
35044;SDS011;21231;48.394;34.964;2023-08-24T17:33:31;14.07;;;12.57;;
35044;SDS011;21231;48.394;34.964;2023-08-24T17:36:19;26.98;;;9.98;;
35044;SDS011;21231;48.394;34.964;2023-08-24T17:39:06;31.00;;;19.33;;
35044;SDS011;21231;48.394;34.964;2023-08-24T17:41:53;28.75;;;15.07;;
35044;SDS011;21231;48.394;34.964;2023-08-24T17:44:39;16.05;;;8.57;;
35044;SDS011;21231;48.394;34.964;2023-08-24T17:47:25;9.73;;;8.68;;
35044;SDS011;21231;48.394;34.964;2023-08-24T17:50:12;13.35;;;8.98;;
35044;SDS011;21231;48.394;34.964;2023-08-24T17:52:58;14.98;;;8.68;;
35044;SDS011;21231;48.394;34.964;2023-08-24T17:55:44;10.82;;;6.65;;
35044;SDS011;21231;48.394;34.964;2023-08-24T17:58:30;6.47;;;6.03;;
35044;SDS011;21231;48.394;34.964;2023-08-24T18:01:16;5.30;;;4.90;;
35044;SDS011;21231;48.394;34.964;2023-08-24T18:04:03;4.35;;;3.05;;
35044;SDS011;21231;48.394;34.964;2023-08-24T18:06:49;6.13;;;3.42;;
35044;SDS011;21231;48.394;34.964;2023-08-24T18:09:38;3.65;;;3.25;;
35044;SDS011;21231;48.394;34.964;2023-08-24T18:12:24;5.15;;;1.95;;
35044;SDS011;21231;48.394;34.964;2023-08-24T18:15:10;3.38;;;2.30;;
35044;SDS011;21231;48.394;34.964;2023-08-24T18:18:05;2.05;;;1.95;;
